Aeroporto :
LOGIN :

Iscrizione | Disclaimer

   EN    FR    IT 

 










Sommario :    VFR   VFR Marginale   IFR   IFR Intensivo   IFR Molto Intensivo
Visibilità : 
Base nubi : 
>= 8 km
>= 3000ft
5 / 8 km
1000 / 3000 ft
1500m / 5 km
500 / 1000 ft
800 / 1500m
200 / 500 ft
< 800m
< 200 ft
Simboli :   Temporali  Nebbia  Neve Forte  Precipitazioni Forti  Vento > 20 kt
SIGMETs :   Varie  Temporali  Ghiacco  Turbolenza  Onda orograficha  Ceneri Vulcaniche






- Altitudine del aeroporto : 242 ft
- Codice IATA : DUB


EIDW - Dublin

ULTIMO METAR :
  • 210000Z 14015G26KT 9999 FEW015 BKN020 08/04 Q1001 NOSIG

METARs OBSOLETI :
  • 202330Z 13015KT 100V160 9999 FEW015 BKN020 08/04 Q1001 NOSIG
  • 202300Z 14016KT 110V170 9999 -RA FEW015 BKN020 08/04 Q1001 NOSIG
  • 202230Z 13014G26KT 9999 FEW015 BKN020 07/03 Q1001 NOSIG
  • 202200Z 14015KT 9999 FEW015 BKN020 08/03 Q1001 NOSIG
  • 202130Z 14017G28KT 110V170 9999 FEW015 BKN020 07/03 Q1002 NOSIG

TAF TAF EIDW
Valido dal 21 a 00 ore il 22 a 00 ore UTC


202300Z 2100/2124 13016G27KT 9999 SCT012 BKN020
PROB40
TEMPO 2100/2102 14020G32KT
PROB30
TEMPO 2104/2108 5000 -RA BKN012
TEMPO 2108/2114 4000 RA BKN008 SCT020CB
BECMG 2109/2111 13013KT
TEMPO 2114/2116 -RA BKN013
TEMPO 2118/2124 5000 -RA BKN010
BECMG 2119/2121 10010KT



MetMap, La meteo Aeronautica in un colpo d'occhio ! - Copyright ORBIFLY Dicembre 2007 - Disclaimer

ORBIFLY MET'MAP TEAM :

Programmazione e sviluppo : Alexandra Zaïnal
Concezione e sviluppo : Baudouin d'Aumeries
Co-Programmazione e sviluppo : Marc-Olivier Méhu
Supporto tecnico e logistico : Manuel Goepfert
Aiuto per la traduzione : Arnaldo La Scala

Contatto : metmap@orbifly.com




FONTI E CREDITI :

   NOAA